createdAt,value
2022-08-23T00:02:48.584Z,24.30
2022-08-23T00:12:52.453Z,24.20
2022-08-23T00:22:58.176Z,24.30
2022-08-23T00:33:01.923Z,24.20
2022-08-23T00:43:27.383Z,24.10
2022-08-23T00:53:34.537Z,24.10
2022-08-23T01:03:43.923Z,24.10
2022-08-23T01:13:52.531Z,24.00
2022-08-23T01:24:01.119Z,24.00
2022-08-23T01:34:08.418Z,23.80
2022-08-23T01:44:13.636Z,23.80
2022-08-23T01:54:17.509Z,23.80
2022-08-23T02:04:23.179Z,23.70
2022-08-23T02:14:27.130Z,23.70
2022-08-23T02:24:32.420Z,23.70
2022-08-23T02:34:36.743Z,23.70
2022-08-23T02:44:41.950Z,23.60
2022-08-23T02:54:45.825Z,23.60
2022-08-23T03:04:51.450Z,23.60
2022-08-23T03:14:55.338Z,23.60
2022-08-23T03:25:00.388Z,23.60
2022-08-23T03:35:05.306Z,23.60
2022-08-23T03:45:19.823Z,23.50
2022-08-23T03:55:23.574Z,23.60
2022-08-23T04:05:29.111Z,23.40
2022-08-23T04:15:32.797Z,23.30
2022-08-23T04:25:37.907Z,23.40
2022-08-23T04:35:42.670Z,23.30
2022-08-23T04:45:48.446Z,23.30
2022-08-23T04:55:52.655Z,23.30
2022-08-23T05:05:58.411Z,23.30
2022-08-23T05:16:02.290Z,23.20
2022-08-23T05:26:08.378Z,23.10
2022-08-23T05:36:13.952Z,23.10
2022-08-23T05:46:21.647Z,23.20
2022-08-23T05:56:32.914Z,23.30
2022-08-23T06:06:37.945Z,23.50
2022-08-23T06:16:47.161Z,23.90
2022-08-23T06:26:52.379Z,24.30
2022-08-23T06:36:57.510Z,24.80
2022-08-23T06:47:02.841Z,25.10
2022-08-23T06:57:07.010Z,25.00
2022-08-23T07:07:13.107Z,24.90
2022-08-23T07:17:17.134Z,25.10
2022-08-23T07:27:22.401Z,25.60
2022-08-23T07:37:28.798Z,25.80
2022-08-23T07:47:33.864Z,25.80
2022-08-23T07:57:38.003Z,25.90
2022-08-23T08:07:43.694Z,26.10
2022-08-23T08:17:49.598Z,26.10
2022-08-23T08:27:54.902Z,26.30
2022-08-23T08:37:58.603Z,26.50
2022-08-23T08:48:12.729Z,26.40
2022-08-23T08:58:26.651Z,26.70
2022-08-23T09:08:46.041Z,26.80
2022-08-23T09:18:50.315Z,27.10
2022-08-23T09:28:58.178Z,27.20
2022-08-23T09:39:05.338Z,27.30
2022-08-23T09:49:28.472Z,27.50
2022-08-23T09:59:40.818Z,27.80
2022-08-23T10:09:46.071Z,28.20
2022-08-23T10:19:58.192Z,28.00
2022-08-23T10:30:07.879Z,28.40
2022-08-23T10:40:17.790Z,28.80
2022-08-23T10:50:23.074Z,29.20
2022-08-23T11:00:29.401Z,29.50
2022-08-23T11:10:55.985Z,29.80
2022-08-23T11:21:08.155Z,30.20
2022-08-23T11:31:27.167Z,30.80
2022-08-23T11:41:32.483Z,31.40
2022-08-23T11:51:44.924Z,31.90
2022-08-23T12:01:48.757Z,32.20
2022-08-23T12:12:24.433Z,32.40
2022-08-23T12:22:35.499Z,32.80
2022-08-23T12:32:45.892Z,33.30
2022-08-23T12:42:51.502Z,33.50
2022-08-23T12:53:02.715Z,33.70
2022-08-23T13:03:16.142Z,34.20
2022-08-23T13:13:24.407Z,34.50
2022-08-23T13:23:30.247Z,34.90
2022-08-23T13:33:36.182Z,35.40
2022-08-23T13:43:46.742Z,35.10
2022-08-23T13:53:51.847Z,36.70
2022-08-23T14:03:56.037Z,36.70
2022-08-23T14:14:02.059Z,36.40
2022-08-23T14:24:06.130Z,36.70
2022-08-23T14:34:11.267Z,36.50
2022-08-23T14:44:16.573Z,35.90
2022-08-23T14:54:23.757Z,36.00
2022-08-23T15:04:34.526Z,36.00
2022-08-23T15:14:40.071Z,35.80
2022-08-23T15:24:43.816Z,35.90
2022-08-23T15:34:48.896Z,34.70
2022-08-23T15:44:52.584Z,33.00
2022-08-23T15:54:58.057Z,32.10
2022-08-23T16:05:02.102Z,31.60
2022-08-23T16:15:08.745Z,30.70
2022-08-23T16:25:13.009Z,31.00
2022-08-23T16:35:18.551Z,30.50
2022-08-23T16:45:25.803Z,30.60
2022-08-23T16:55:31.732Z,30.60
2022-08-23T17:05:36.007Z,30.30
2022-08-23T17:15:41.461Z,30.40
2022-08-23T17:25:48.202Z,30.30
2022-08-23T17:35:53.312Z,31.50
2022-08-23T17:45:57.064Z,32.50
2022-08-23T17:56:06.937Z,31.30
2022-08-23T18:06:17.424Z,29.10
2022-08-23T18:16:22.759Z,28.70
2022-08-23T18:26:44.551Z,28.40
2022-08-23T18:36:50.039Z,28.40
2022-08-23T18:46:53.726Z,28.30
2022-08-23T18:57:00.909Z,28.30
2022-08-23T19:07:05.151Z,28.20
2022-08-23T19:17:10.371Z,28.10
2022-08-23T19:27:15.282Z,28.00
2022-08-23T19:37:22.799Z,28.00
2022-08-23T19:47:28.775Z,27.90
2022-08-23T19:57:35.097Z,27.90
2022-08-23T20:07:39.686Z,27.70
2022-08-23T20:17:45.020Z,27.70
2022-08-23T20:27:49.020Z,27.70
2022-08-23T20:37:54.229Z,27.60
2022-08-23T20:47:58.025Z,27.40
2022-08-23T20:58:03.672Z,27.40
2022-08-23T21:08:07.739Z,27.00
2022-08-23T21:18:18.201Z,26.50
2022-08-23T21:28:21.970Z,26.50
2022-08-23T21:38:27.143Z,26.40
2022-08-23T21:48:32.143Z,26.20
2022-08-23T21:58:37.135Z,26.20
2022-08-23T22:08:41.027Z,26.10
2022-08-23T22:18:46.156Z,25.90
2022-08-23T22:28:50.054Z,25.80
2022-08-23T22:38:55.483Z,25.80
2022-08-23T22:48:59.493Z,25.60
2022-08-23T22:59:07.334Z,25.50
2022-08-23T23:09:13.075Z,25.30
2022-08-23T23:19:36.063Z,25.40
2022-08-23T23:29:39.949Z,25.40
2022-08-23T23:39:45.207Z,25.30
2022-08-23T23:49:49.041Z,25.30
2022-08-23T23:59:55.455Z,25.30
